Blue Oak Ranch Reserve, California Weather observations

Data are for 10 minute period ending at time listed.
 Day   Time   Solar   Ave.   Ave.  Ave.  Vector  Max.   Baro.   Total    
  of    of     Rad.   Air    Rel.  Wind   Wind   Wind  Press.  Precip.   
Year   Day            Temp.  Hum.  Speed  Dir.   Gust                    
2026   (PST)  Kw/m2    F      %     mph   deg.    mph    mb.     in.     
-------------------------------------------------------------------------
 241   15:50   0.56   79.7    27    7.3   280    11.8   948.9    0.00 
 241   16:00   0.53   78.9    29    8.0   290    11.0   948.8    0.00 
 241   16:10   0.50   78.5    30    7.7   280    12.0   948.8    0.00 
 241   16:20   0.46   77.6    32    7.8   288    11.5   948.9    0.00 
 241   16:30   0.43   76.5    32    6.9   282    10.8   948.9    0.00 
 241   16:40   0.39   76.4    30    6.6   286     9.4   949.0    0.00 
 241   16:50   0.36   76.6    28    6.3   283     8.8   949.0    0.00 
 241   17:00   0.32   76.3    28    5.3   287     9.0   949.0    0.00 
 241   17:10   0.29   75.4    30    7.3   285    10.3   949.0    0.00 
 241   17:20   0.25   74.8    32    7.1   281    10.0   948.9    0.00 
 241   17:30   0.22   74.6    32    7.0   283     9.7   948.9    0.00 
 241   17:40   0.18   73.9    31    6.6   276    10.7   948.9    0.00 
 241   17:50   0.15   73.5    28    5.1   277     7.3   948.8    0.00 
 241   18:00   0.12   71.6    31    4.4   243     7.5   948.8    0.00 
 241   18:10   0.09   69.5    36    2.1   235     5.3   948.8    0.00 
 241   18:20   0.05   68.0    37    1.8   202     3.8   948.8    0.00 
 241   18:30   0.01   66.9    39    0.4   203     2.0   948.8    0.00 
 241   18:40   0.01   65.7    42    1.3   271     3.3   948.8    0.00 
 241   18:50   0.00   64.7    45    0.9   285     1.7   948.8    0.00 
 241   19:00   0.00   62.8    46    0.6     4     1.9   948.7    0.00 
 241   19:10   0.00   61.3    47    0.4   277     1.8   948.7    0.00 
 241   19:20   0.00   60.4    47    0.6   289     2.0   948.7    0.00 
 241   19:30   0.00   59.2    47    2.0   301     3.4   948.8    0.00 
 241   19:40   0.00   58.4    46    0.6    47     2.8   948.8    0.00 
 241   19:50   0.00   57.9    46    0.7    55     1.8   949.0    0.00 
 241   20:00   0.00   57.4    47    0.0   112     0.4   949.1    0.00 
 241   20:10   0.00   56.7    48    1.5    69     2.6   949.2    0.00 
 241   20:20   0.00   55.7    50    3.0   284     4.7   949.3    0.00 
 241   20:30   0.00   54.8    52    1.1    42     2.6   949.4    0.00 
 241   20:40   0.00   55.0    52    0.4   266     1.8   949.4    0.00 
 241   20:50   0.00   54.8    54    0.3    48     1.5   949.4    0.00 
 241   21:00   0.00   54.5    54    0.8   267     1.8   949.4    0.00 
 241   21:10   0.00   54.5    55    0.3   295     1.2   949.4    0.00 
 241   21:20   0.00   53.8    56    1.5   281     5.7   949.3    0.00 
 241   21:30   0.00   53.5    57    0.4   356     1.5   949.1    0.00 
 241   21:40   0.00   53.5    57    0.0   301     0.6   949.0    0.00 
 241   21:50   0.00   53.7    57    1.3   281     3.2   949.0    0.00 
 241   22:00   0.00   53.7    57    0.2   316     1.5   948.9    0.00 
 241   22:10   0.00   53.2    59    0.1    81     1.0   948.9    0.00 
 241   22:20   0.00   52.9    59    0.0    10     0.6   948.8    0.00 
 241   22:30   0.00   52.9    58    0.2   299     2.0   948.8    0.00 
 241   22:40   0.00   52.8    57    0.7   345     2.6   948.7    0.00 
 241   22:50   0.00   52.7    57    0.9   302     2.5   948.6    0.00 
 241   23:00   0.00   52.7    54    0.0     0     0.0   948.5    0.00 
 241   23:10   0.00   52.4    52    0.6    36     1.8   948.5    0.00 
 241   23:20   0.00   52.0    55    0.7   278     2.7   948.6    0.00 
 241   23:30   0.00   51.7    51    1.3    53     3.0   948.6    0.00 
 241   23:40   0.00   51.4    52    0.9   292     3.1   948.6    0.00 
 241   23:50   0.00   50.9    52    0.1   306     1.8   948.5    0.00 
 242    0:00   0.00   51.3    50    1.6   342     3.1   948.5    0.00 
 242    0:10   0.00   51.5    47    0.9    63     1.8   948.6    0.00 
 242    0:20   0.00   51.2    47    1.1   338     2.6   948.6    0.00 
 242    0:30   0.00   50.9    47    0.5   271     2.1   948.5    0.00 
 242    0:40   0.00   50.7    48    1.2   292     2.3   948.4    0.00 
 242    0:50   0.00   51.0    46    0.8   255     2.3   948.4    0.00 
 242    1:00   0.00   51.4    44    0.8   327     2.7   948.3    0.00 
 242    1:10   0.00   51.1    43    0.3   340     1.5   948.3    0.00 
 242    1:20   0.00   51.3    42    1.0   280     1.8   948.3    0.00 
 242    1:30   0.00   51.0    42    0.5   270     1.6   948.2    0.00 
 242    1:40   0.00   50.9    41    0.2    66     1.1   948.2    0.00 
 242    1:50   0.00   50.3    41    1.3   278     3.1   948.2    0.00 
 242    2:00   0.00   49.8    41    0.4    72     1.6   948.3    0.00 
 242    2:10   0.00   49.7    42    0.1   214     1.1   948.3    0.00 
 242    2:20   0.00   50.0    42    0.1   272     1.5   948.2    0.00 
 242    2:30   0.00   50.1    42    0.6   282     1.6   948.2    0.00 
 242    2:40   0.00   50.1    43    0.4   290     1.4   948.3    0.00 
 242    2:50   0.00   50.0    46    0.2    40     1.5   948.2    0.00 
 242    3:00   0.00   49.9    48    0.6    37     1.3   948.2    0.00 
 242    3:10   0.00   50.0    48    0.7   280     1.7   948.1    0.00 
 242    3:20   0.00   49.6    52    1.1    76     2.3   948.1    0.00 
 242    3:30   0.00   49.6    55    1.0    33     2.0   948.2    0.00 
 242    3:40   0.00   49.6    56    1.7   289     2.3   948.1    0.00 
 242    3:50   0.00   49.2    60    1.4   298     2.3   948.0    0.00 
 242    4:00   0.00   49.0    64    0.4    86     1.5   948.0    0.00 
 242    4:10   0.00   49.1    65    0.2    96     1.5   948.0    0.00 
 242    4:20   0.00   48.8    65    0.6    43     2.0   947.9    0.00 
 242    4:30   0.00   48.4    66    0.0     0     0.0   948.0    0.00 
 242    4:40   0.00   48.3    66    0.5   299     2.0   948.0    0.00 
 242    4:50   0.00   48.2    67    0.2   305     1.1   948.0    0.00 
 242    5:00   0.00   48.2    66    0.2    42     1.2   948.1    0.00 
 242    5:10   0.00   48.2    65    0.0     0     0.0   948.1    0.00 
 242    5:20   0.00   48.1    66    0.3   341     1.9   948.1    0.00 
 242    5:30   0.00   47.9    67    1.3   279     2.6   948.1    0.00 
 242    5:40   0.00   47.5    68    0.4   279     1.2   948.1    0.00 
 242    5:50   0.01   47.7    68    0.2   279     1.0   948.3    0.00 
 242    6:00   0.01   47.9    67    0.5   282     2.2   948.3    0.00 
 242    6:10   0.01   47.8    68    1.0   286     2.0   948.4    0.00 
 242    6:20   0.02   47.9    68    0.0   290     0.4   948.5    0.00 
 242    6:30   0.06   48.7    67    0.0     0     0.0   948.5    0.00 
 242    6:40   0.15   50.3    64    0.0    88     0.8   948.5    0.00 
 242    6:50   0.19   54.7    57    0.7   273     2.0   948.6    0.00 
 242    7:00   0.22   58.5    51    1.8   280     2.7   948.7    0.00 
 242    7:10   0.26   62.6    44    0.8   286     2.0   948.7    0.00 
 242    7:20   0.29   66.3    39    0.2   119     1.2   948.8    0.00 
 242    7:30   0.33   66.6    39    0.5   143     1.2   948.8    0.00 
 242    7:40   0.37   67.7    38    0.8   147     1.6   948.8    0.00 
 242    7:50   0.40   69.2    36    2.1   247     4.2   948.8    0.00 
 242    8:00   0.44   68.5    37    2.9   236     4.8   948.8    0.00 
 242    8:10   0.47   68.6    38    2.3   250     4.8   948.7    0.00 
 242    8:20   0.51   69.2    38    2.9   250     5.6   948.7    0.00 
 242    8:30   0.54   68.9    38    3.1   239     4.7   948.7    0.00 
 242    8:40   0.57   68.2    38    3.4   231     5.6   948.7    0.00 
 242    8:50   0.61   69.8    36    3.3   259     5.7   948.6    0.00 
 242    9:00   0.64   70.0    37    4.2   251     9.7   948.8    0.00 
 242    9:10   0.67   68.9    39    5.0   244     8.2   948.8    0.00 
 242    9:20   0.70   69.4    38    4.7   255     8.4   948.8    0.00 
 242    9:30   0.72   69.7    40    4.8   260     8.6   948.9    0.00 
 242    9:40   0.75   70.2    39    3.7   247     7.3   948.9    0.00 
 242    9:50   0.77   69.3    39    4.8   252     8.3   949.0    0.00 
 242   10:00   0.80   70.6    37    5.3   250     9.5   948.9    0.00 
 242   10:10   0.82   70.9    38    5.0   250     8.5   948.9    0.00 
 242   10:20   0.84   70.5    38    5.6   245    10.4   949.0    0.00 
 242   10:30   0.86   71.2    37    5.9   256     9.8   949.0    0.00 
 242   10:40   0.88   71.9    35    5.7   263    11.0   948.9    0.00 
 242   10:50   0.89   72.9    36    6.2   259     9.7   948.8    0.00 
 242   11:00   0.90   73.3    34    6.2   265    10.7   948.8    0.00 
 242   11:10   0.92   73.0    34    5.6   260    10.1   948.8    0.00 
 242   11:20   0.93   74.3    33    5.5   264    10.6   948.8    0.00 
 242   11:30   0.94   76.1    31    6.4   269    10.4   948.8    0.00 
 242   11:40   0.94   75.1    32    6.0   256    11.5   948.8    0.00 
 242   11:50   0.94   74.6    32    6.3   261     9.9   948.7    0.00 
 242   12:00   0.95   74.9    31    5.1   252     8.0   948.6    0.00 
 242   12:10   0.95   74.9    33    5.7   252    12.4   948.7    0.00 
 242   12:20   0.95   73.8    35    4.4   228     9.7   948.6    0.00 
 242   12:30   0.94   73.6    36    5.2   245    10.7   948.6    0.00 
 242   12:40   0.94   75.5    34    6.1   250    10.2   948.5    0.00 
 242   12:50   0.94   75.9    32    5.0   263     9.4   948.5    0.00 
 242   13:00   0.90   77.3    31    5.7   257     9.8   948.5    0.00 
 242   13:10   0.92   78.0    29    5.1   249     8.9   948.4    0.00 
 242   13:20   0.91   77.6    30    5.2   262     8.7   948.4    0.00 
 242   13:30   0.90   78.0    28    3.8   240     8.1   948.3    0.00 
 242   13:40   0.89   78.0    28    4.0   286     8.9   948.1    0.00 
 242   13:50   0.88   79.2    27    5.8   254     9.9   947.9    0.00 
 242   14:00   0.86   78.8    29    4.7   251    11.3   947.8    0.00 
 242   14:10   0.84   77.9    30    4.7   245    10.4   947.7    0.00 
 242   14:20   0.82   79.3    29    4.4   270     8.9   947.6    0.00 
 242   14:30   0.79   79.5    29    4.5   249    11.0   947.5    0.00 
 242   14:40   0.77   78.2    31    5.5   234    10.9   947.5    0.00 
 242   14:50   0.74   78.5    32    4.9   244     8.9   947.3    0.00 
 242   15:00   0.72   78.5    34    4.8   248     8.9   947.2    0.00 
 242   15:10   0.69   78.8    33    4.9   244     9.1   947.2    0.00 
 242   15:20   0.66   78.3    34    5.3   232     8.9   947.2    0.00 
 242   15:30   0.63   77.6    36    5.1   243     9.8   947.1    0.00 
 242   15:40   0.60   77.6    36    5.1   246     8.8   947.0    0.00 

Return to Blue Oak Ranch Reserve graphs page.


Western Regional Climate Center,wrcc@dri.edu